Time;durP1;ratioP1;P1;durP2;ratioP2;P2;SDS_P1;SDS_P2;PMS_P1;PMS_P2;Temp;Humidity;BMP_temperature;BMP_pressure;BME280_temperature;BME280_humidity;BME280_pressure;Samples;Min_cycle;Max_cycle;Signal;HPM_P1;HPM_P2
2021/11/27 00:00:00;;;;;;;0.40;0.20;;;;;;;4.31;84.29;98643.69;5055568;28;20792;-71
2021/11/27 00:02:27;;;;;;;0.40;0.30;;;;;;;4.34;85.31;98648.44;5055590;28;20500;-71
2021/11/27 00:04:54;;;;;;;0.40;0.30;;;;;;;4.33;85.89;98643.34;5055034;28;20496;-72
2021/11/27 00:07:20;;;;;;;0.40;0.30;;;;;;;4.29;85.36;98645.84;5054407;28;20446;-71
2021/11/27 00:09:47;;;;;;;0.40;0.30;;;;;;;4.26;85.58;98636.56;5055086;28;20503;-71
2021/11/27 00:12:14;;;;;;;0.40;0.20;;;;;;;4.20;85.50;98637.78;5055318;28;20527;-71
2021/11/27 00:14:42;;;;;;;0.40;0.30;;;;;;;4.18;85.49;98631.94;5054879;28;20482;-71
2021/11/27 00:17:09;;;;;;;0.40;0.30;;;;;;;4.13;84.89;98632.06;5054892;28;20466;-71
2021/11/27 00:19:35;;;;;;;0.40;0.20;;;;;;;4.18;84.33;98637.31;5054822;28;20833;-72
2021/11/27 00:22:02;;;;;;;0.40;0.30;;;;;;;4.16;84.77;98636.00;5054801;28;20434;-71
2021/11/27 00:24:29;;;;;;;0.40;0.30;;;;;;;4.17;85.55;98638.41;5055066;28;20495;-72
2021/11/27 00:26:56;;;;;;;0.40;0.30;;;;;;;4.27;85.90;98642.72;5054969;28;20466;-73
2021/11/27 00:29:23;;;;;;;0.40;0.30;;;;;;;4.26;86.08;98635.78;5054718;28;20484;-71
2021/11/27 00:31:52;;;;;;;1.20;1.10;;;;;;;4.29;85.72;98635.13;5055045;28;20533;-71
2021/11/27 00:34:18;;;;;;;0.40;0.20;;;;;;;4.32;85.47;98625.69;5054939;28;20489;-71
2021/11/27 00:36:45;;;;;;;0.40;0.30;;;;;;;4.30;86.12;98632.16;5054936;28;20578;-72
2021/11/27 00:39:12;;;;;;;0.40;0.30;;;;;;;4.35;85.64;98622.41;5054842;28;20491;-72
2021/11/27 00:41:39;;;;;;;0.40;0.30;;;;;;;4.42;85.29;98625.44;5054811;28;20438;-72
2021/11/27 00:44:06;;;;;;;0.83;0.83;;;;;;;4.48;85.14;98619.63;5054822;28;20519;-71
2021/11/27 00:46:33;;;;;;;0.40;0.30;;;;;;;4.45;84.27;98625.59;5054284;28;20858;-73
2021/11/27 00:49:02;;;;;;;0.40;0.30;;;;;;;4.43;84.84;98629.72;5054780;28;20862;-71
2021/11/27 00:51:28;;;;;;;0.40;0.30;;;;;;;4.43;84.93;98616.31;5054615;28;20862;-72
2021/11/27 00:53:56;;;;;;;0.40;0.30;;;;;;;4.46;84.76;98621.81;5055003;28;20551;-72
2021/11/27 00:56:23;;;;;;;0.40;0.30;;;;;;;4.44;84.08;98623.25;5054558;28;20485;-71
2021/11/27 00:58:50;;;;;;;0.40;0.30;;;;;;;4.38;83.18;98617.22;5054275;28;20798;-71
2021/11/27 01:01:20;;;;;;;0.40;0.27;;;;;;;4.30;83.07;98600.00;5054115;28;20443;-71
2021/11/27 01:03:47;;;;;;;0.40;0.20;;;;;;;4.36;83.35;98605.22;5054291;28;20492;-73
2021/11/27 01:06:20;;;;;;;0.40;0.30;;;;;;;4.46;84.19;98610.31;5054329;28;20878;-71
2021/11/27 01:08:48;;;;;;;0.40;0.30;;;;;;;4.42;82.93;98602.09;5054281;28;20438;-71
2021/11/27 01:11:18;;;;;;;0.40;0.30;;;;;;;4.33;82.60;98605.84;5053885;28;20500;-71
2021/11/27 01:13:47;;;;;;;0.40;0.20;;;;;;;4.35;83.14;98603.66;5054067;28;20466;-71
2021/11/27 01:16:17;;;;;;;0.40;0.30;;;;;;;4.28;82.64;98604.09;5053667;28;20470;-71
2021/11/27 01:18:44;;;;;;;0.40;0.30;;;;;;;4.31;82.38;98606.16;5053831;28;20442;-71
2021/11/27 01:21:14;;;;;;;0.40;0.30;;;;;;;4.29;82.00;98595.75;5053732;28;20468;-71
2021/11/27 01:23:43;;;;;;;0.40;0.30;;;;;;;4.30;82.79;98601.91;5053975;28;20438;-72
2021/11/27 01:26:11;;;;;;;0.40;0.30;;;;;;;4.30;82.85;98600.00;5053635;28;20979;-71
2021/11/27 01:28:38;;;;;;;0.40;0.20;;;;;;;4.30;82.90;98596.53;5053568;28;20870;-72
2021/11/27 01:31:06;;;;;;;0.40;0.30;;;;;;;4.28;82.88;98602.19;5053818;28;20446;-73
2021/11/27 01:33:33;;;;;;;0.40;0.23;;;;;;;4.22;83.60;98606.13;5053742;28;20486;-71
2021/11/27 01:36:01;;;;;;;0.40;0.30;;;;;;;4.20;84.18;98607.50;5053413;28;20524;-73
2021/11/27 01:38:28;;;;;;;0.40;0.20;;;;;;;4.13;84.09;98599.94;5053355;28;20958;-72
2021/11/27 01:40:57;;;;;;;0.40;0.30;;;;;;;4.18;84.10;98602.47;5053453;28;20438;-71
2021/11/27 01:43:24;;;;;;;0.40;0.30;;;;;;;4.11;84.34;98602.09;5053488;28;20442;-72
2021/11/27 01:45:53;;;;;;;0.40;0.20;;;;;;;4.15;84.15;98596.94;5053235;28;21029;-71
2021/11/27 01:48:21;;;;;;;0.40;0.20;;;;;;;4.04;84.67;98591.06;5053518;28;20515;-72
2021/11/27 01:50:52;;;;;;;1.40;1.30;;;;;;;3.98;85.33;98586.91;5053597;28;20515;-71
2021/11/27 01:53:22;;;;;;;0.40;0.30;;;;;;;3.92;85.46;98582.78;5053054;28;20470;-73
2021/11/27 01:55:50;;;;;;;0.40;0.30;;;;;;;3.91;85.61;98581.22;5053217;28;20477;-71
2021/11/27 01:58:18;;;;;;;0.40;0.30;;;;;;;3.90;85.44;98585.78;5053121;28;20943;-72
2021/11/27 02:00:50;;;;;;;0.40;0.30;;;;;;;3.91;84.54;98586.56;5053631;28;20496;-72
2021/11/27 02:03:18;;;;;;;0.40;0.30;;;;;;;3.89;84.34;98586.84;5053506;28;20422;-71
2021/11/27 02:05:45;;;;;;;0.40;0.30;;;;;;;3.91;84.23;98576.63;5053341;28;20494;-73
2021/11/27 02:08:12;;;;;;;0.40;0.30;;;;;;;3.84;84.94;98572.81;5052994;28;20445;-73
2021/11/27 02:10:40;;;;;;;1.07;1.07;;;;;;;3.72;84.27;98574.16;5053060;28;20499;-72
2021/11/27 02:13:06;;;;;;;0.40;0.30;;;;;;;3.68;84.53;98575.88;5052907;28;20795;-73
2021/11/27 02:15:34;;;;;;;0.40;0.30;;;;;;;3.64;84.88;98572.22;5053110;28;20466;-73
2021/11/27 02:18:01;;;;;;;0.40;0.30;;;;;;;3.62;83.75;98561.00;5052894;28;20450;-73
2021/11/27 02:20:28;;;;;;;0.57;0.57;;;;;;;3.61;84.19;98567.47;5053189;28;20450;-72
2021/11/27 02:22:56;;;;;;;0.40;0.30;;;;;;;3.50;84.17;98560.78;5052859;28;20951;-72
2021/11/27 02:25:24;;;;;;;0.40;0.30;;;;;;;3.46;84.52;98562.50;5053043;28;20516;-72
2021/11/27 02:27:52;;;;;;;0.60;0.60;;;;;;;3.40;85.22;98555.66;5053058;28;20426;-72
2021/11/27 02:30:23;;;;;;;0.40;0.30;;;;;;;3.39;86.05;98560.22;5055034;28;20460;-71
2021/11/27 02:32:50;;;;;;;0.40;0.30;;;;;;;3.41;85.54;98563.41;5056917;28;21002;-72
2021/11/27 02:35:18;;;;;;;0.40;0.30;;;;;;;3.44;84.93;98564.66;5056714;28;20497;-72
2021/11/27 02:37:46;;;;;;;0.40;0.30;;;;;;;3.51;85.47;98560.47;5057140;28;20450;-72
2021/11/27 02:40:14;;;;;;;0.40;0.30;;;;;;;3.46;84.73;98560.59;5056760;28;20438;-72
2021/11/27 02:42:41;;;;;;;0.50;0.40;;;;;;;3.44;85.35;98554.75;5057030;28;20488;-71
2021/11/27 02:45:11;;;;;;;0.40;0.30;;;;;;;3.40;85.27;98563.69;5056905;28;20442;-73
2021/11/27 02:47:39;;;;;;;0.40;0.30;;;;;;;3.39;85.49;98562.13;5057003;28;20450;-71
2021/11/27 02:50:08;;;;;;;0.40;0.30;;;;;;;3.35;85.94;98558.47;5056886;28;20495;-73
2021/11/27 02:52:36;;;;;;;0.57;0.57;;;;;;;3.35;86.32;98558.47;5056930;28;20468;-73
2021/11/27 02:55:03;;;;;;;0.40;0.30;;;;;;;3.38;86.78;98549.84;5056388;28;21041;-71
2021/11/27 02:57:32;;;;;;;0.40;0.30;;;;;;;3.37;86.72;98550.94;5086560;22;20493;-78
2021/11/27 02:59:59;;;;;;;0.40;0.30;;;;;;;3.40;86.99;98550.31;5084311;28;20465;-79
2021/11/27 03:02:27;;;;;;;0.40;0.27;;;;;;;3.36;87.01;98550.13;5086152;28;20445;-79
2021/11/27 03:07:24;;;;;;;1.80;1.70;;;;;;;3.36;87.29;98546.66;5015338;28;20897;-72
2021/11/27 03:09:51;;;;;;;0.40;0.30;;;;;;;3.40;86.08;98550.31;5016412;28;20547;-73
2021/11/27 03:12:18;;;;;;;0.40;0.30;;;;;;;3.35;86.39;98543.19;5016233;28;20440;-72
2021/11/27 03:14:47;;;;;;;0.50;0.30;;;;;;;3.34;86.70;98546.19;5016217;28;20483;-73
2021/11/27 03:17:14;;;;;;;0.40;0.30;;;;;;;3.35;86.93;98551.22;5016185;28;20586;-72
2021/11/27 03:19:43;;;;;;;0.40;0.30;;;;;;;3.34;86.85;98544.28;5016510;28;20444;-72
2021/11/27 03:22:12;;;;;;;1.13;1.07;;;;;;;3.31;86.73;98547.56;5016130;28;20506;-72
2021/11/27 03:24:39;;;;;;;0.40;0.30;;;;;;;3.31;86.45;98542.22;5016416;28;20486;-72
2021/11/27 03:27:07;;;;;;;0.40;0.30;;;;;;;3.27;85.35;98536.69;5016069;28;20468;-72
2021/11/27 03:29:34;;;;;;;0.40;0.30;;;;;;;3.28;85.06;98540.97;5016337;28;20444;-72
2021/11/27 03:32:06;;;;;;;0.40;0.40;;;;;;;3.29;84.62;98539.84;5015908;28;21025;-72
2021/11/27 03:34:33;;;;;;;0.50;0.30;;;;;;;3.28;84.51;98548.97;5015863;28;21027;-72
2021/11/27 03:37:00;;;;;;;0.40;0.30;;;;;;;3.20;84.69;98547.03;5016018;28;20471;-72
2021/11/27 03:39:27;;;;;;;0.40;0.30;;;;;;;3.20;84.66;98548.91;5015897;28;20506;-72
2021/11/27 03:41:54;;;;;;;0.40;0.20;;;;;;;3.07;84.22;98544.41;5016025;28;20496;-72
2021/11/27 03:44:21;;;;;;;0.40;0.30;;;;;;;2.92;84.26;98545.50;5015818;28;20917;-72
2021/11/27 03:46:49;;;;;;;0.40;0.37;;;;;;;3.00;85.64;98544.78;5015900;28;20468;-72
2021/11/27 03:49:23;;;;;;;0.60;0.50;;;;;;;3.00;83.88;98542.91;5015991;28;20443;-72
2021/11/27 03:51:50;;;;;;;0.60;0.60;;;;;;;2.99;83.55;98541.34;5015648;28;20519;-72
2021/11/27 03:54:17;;;;;;;2.50;2.40;;;;;;;2.93;84.72;98555.13;5015765;28;20530;-72
2021/11/27 03:56:44;;;;;;;0.40;0.30;;;;;;;2.88;84.50;98555.22;5015780;28;20472;-72
2021/11/27 03:59:11;;;;;;;0.40;0.30;;;;;;;2.87;85.56;98564.34;5015733;28;20452;-72
2021/11/27 04:01:38;;;;;;;0.40;0.30;;;;;;;2.83;85.21;98555.31;5015735;28;20498;-72
2021/11/27 04:04:06;;;;;;;0.40;0.30;;;;;;;2.82;86.43;98557.22;5015733;28;20874;-72
2021/11/27 04:06:35;;;;;;;0.40;0.30;;;;;;;2.84;87.59;98551.59;5015265;28;20483;-72
2021/11/27 04:09:08;;;;;;;10.60;9.80;;;;;;;2.88;87.46;98555.22;5015546;28;20498;-72
2021/11/27 04:11:36;;;;;;;0.40;0.30;;;;;;;2.98;87.30;98544.31;5015617;28;20432;-72
2021/11/27 04:14:04;;;;;;;0.40;0.30;;;;;;;3.04;86.90;98551.13;5015480;28;20480;-72
2021/11/27 04:16:31;;;;;;;0.40;0.30;;;;;;;3.14;87.07;98552.78;5015449;28;20463;-72
2021/11/27 04:18:57;;;;;;;0.40;0.30;;;;;;;3.17;86.78;98550.28;5015486;28;20440;-72
2021/11/27 04:21:24;;;;;;;0.50;0.40;;;;;;;3.24;86.06;98558.69;5015438;28;20502;-72
2021/11/27 04:23:52;;;;;;;0.53;0.53;;;;;;;3.25;86.12;98562.94;5015045;28;20448;-72
2021/11/27 04:26:21;;;;;;;0.40;0.30;;;;;;;3.26;85.76;98556.50;5014943;28;20522;-72
2021/11/27 04:28:49;;;;;;;0.40;0.30;;;;;;;3.32;86.13;98561.72;5015244;28;20444;-72
2021/11/27 04:31:17;;;;;;;0.40;0.30;;;;;;;3.30;85.30;98551.34;5015050;28;20452;-72
2021/11/27 04:33:45;;;;;;;0.40;0.30;;;;;;;3.27;84.02;98555.41;5015042;28;20816;-72
2021/11/27 04:36:12;;;;;;;0.40;0.20;;;;;;;3.25;83.96;98549.56;5014671;28;20551;-72
2021/11/27 04:38:39;;;;;;;0.40;0.30;;;;;;;3.21;83.29;98558.50;5015055;28;20498;-72
2021/11/27 04:41:07;;;;;;;0.40;0.30;;;;;;;3.15;84.00;98555.16;5014864;28;21029;-72
2021/11/27 04:43:34;;;;;;;0.40;0.30;;;;;;;3.25;84.04;98554.94;5014687;28;20440;-72
2021/11/27 04:46:01;;;;;;;0.40;0.30;;;;;;;3.25;83.83;98554.94;5014879;28;20899;-73
2021/11/27 04:48:28;;;;;;;0.40;0.30;;;;;;;3.27;83.94;98554.63;5014875;28;20452;-73
2021/11/27 04:50:55;;;;;;;0.40;0.30;;;;;;;3.28;83.25;98556.22;5014171;28;20460;-75
2021/11/27 04:53:22;;;;;;;0.40;0.30;;;;;;;3.27;82.99;98547.38;5013962;28;20436;-73
2021/11/27 04:55:49;;;;;;;0.40;0.30;;;;;;;3.28;82.51;98553.53;5014535;28;20624;-73
2021/11/27 04:58:17;;;;;;;0.40;0.30;;;;;;;3.33;83.25;98550.75;5014732;28;20863;-73
2021/11/27 05:00:47;;;;;;;0.40;0.30;;;;;;;3.33;83.75;98555.31;5014267;28;20468;-73
2021/11/27 05:03:14;;;;;;;0.40;0.30;;;;;;;3.33;83.64;98560.66;5014389;28;20428;-73
2021/11/27 05:05:41;;;;;;;0.40;0.20;;;;;;;3.37;83.32;98550.94;5013987;28;20455;-73
2021/11/27 05:08:08;;;;;;;0.40;0.30;;;;;;;3.37;82.99;98557.06;5014544;28;20882;-74
2021/11/27 05:10:35;;;;;;;0.40;0.30;;;;;;;3.42;83.21;98556.94;5014507;28;20444;-73
2021/11/27 05:13:02;;;;;;;0.40;0.30;;;;;;;3.49;83.81;98553.84;5014397;28;20448;-73
2021/11/27 05:15:30;;;;;;;0.40;0.30;;;;;;;3.51;83.89;98554.34;5014260;28;20913;-74
2021/11/27 05:17:57;;;;;;;0.40;0.30;;;;;;;3.53;83.73;98565.50;5013921;28;20459;-73
2021/11/27 05:20:24;;;;;;;0.40;0.30;;;;;;;3.51;83.97;98560.47;5014268;28;20456;-74
2021/11/27 05:22:51;;;;;;;1.17;1.10;;;;;;;3.44;84.02;98562.78;5013867;28;20448;-73
2021/11/27 05:25:18;;;;;;;0.40;0.30;;;;;;;3.55;83.81;98560.66;5014211;28;20436;-74
2021/11/27 05:27:44;;;;;;;0.40;0.30;;;;;;;3.50;84.11;98564.25;5013770;28;20522;-74
2021/11/27 05:30:14;;;;;;;0.40;0.30;;;;;;;3.56;83.27;98566.81;5013801;28;20440;-73
2021/11/27 05:33:07;;;;;;;0.40;0.30;;;;;;;3.52;83.79;98570.09;5014055;28;20539;-73
2021/11/27 05:35:34;;;;;;;0.40;0.30;;;;;;;3.58;83.81;98580.66;5013864;28;20875;-73
2021/11/27 05:38:01;;;;;;;0.40;0.30;;;;;;;3.58;83.93;98580.66;5013973;28;20448;-73
2021/11/27 05:40:29;;;;;;;0.40;0.30;;;;;;;3.58;83.68;98573.41;5013933;28;20447;-73
2021/11/27 05:42:56;;;;;;;0.40;0.30;;;;;;;3.58;82.95;98568.06;5013681;28;20433;-74
2021/11/27 05:45:27;;;;;;;0.40;0.30;;;;;;;3.60;82.04;98570.47;5013842;28;20444;-73
2021/11/27 05:47:56;;;;;;;0.40;0.20;;;;;;;3.65;82.80;98573.00;5013772;28;20492;-73
2021/11/27 05:50:23;;;;;;;0.40;0.30;;;;;;;3.64;82.81;98558.84;5013812;28;20530;-73
2021/11/27 05:52:51;;;;;;;0.40;0.30;;;;;;;3.59;83.04;98569.66;5013451;28;20436;-73
2021/11/27 05:55:18;;;;;;;0.40;0.30;;;;;;;3.62;82.00;98577.06;5013811;28;20516;-73
2021/11/27 05:57:45;;;;;;;0.40;0.40;;;;;;;3.65;81.79;98570.34;5013626;28;20468;-73
2021/11/27 06:00:13;;;;;;;0.40;0.30;;;;;;;3.66;81.29;98563.88;5013347;28;20506;-73
2021/11/27 06:02:41;;;;;;;0.40;0.30;;;;;;;3.65;81.68;98563.09;5013636;28;20515;-73
2021/11/27 06:05:10;;;;;;;0.40;0.30;;;;;;;3.68;81.40;98567.06;5012396;28;20506;-73
2021/11/27 06:07:37;;;;;;;0.40;0.30;;;;;;;3.67;81.37;98573.47;5013573;28;20594;-73
2021/11/27 06:10:04;;;;;;;0.40;0.30;;;;;;;3.59;81.31;98577.69;5013544;28;20451;-73
2021/11/27 06:12:31;;;;;;;0.40;0.30;;;;;;;3.52;80.92;98574.66;5013487;28;20867;-72
2021/11/27 06:14:58;;;;;;;0.40;0.30;;;;;;;3.52;81.81;98580.00;5013224;28;20492;-71
2021/11/27 06:17:25;;;;;;;0.40;0.30;;;;;;;3.50;81.23;98583.00;5012743;28;20480;-71
2021/11/27 06:19:52;;;;;;;0.40;0.30;;;;;;;3.43;81.47;98576.47;5013439;28;20444;-71
2021/11/27 06:22:22;;;;;;;0.40;0.30;;;;;;;3.43;82.05;98587.19;5013430;28;20506;-71
2021/11/27 06:24:49;;;;;;;0.40;0.30;;;;;;;3.42;82.33;98583.72;5013095;28;20941;-71
2021/11/27 06:27:16;;;;;;;0.40;0.30;;;;;;;3.45;81.87;98591.13;5012904;28;20531;-72
2021/11/27 06:29:42;;;;;;;0.40;0.30;;;;;;;3.44;81.00;98591.44;5013296;28;20495;-71
2021/11/27 06:32:11;;;;;;;0.40;0.30;;;;;;;3.36;81.94;98592.94;5013263;28;20452;-71
2021/11/27 06:34:39;;;;;;;0.40;0.30;;;;;;;3.40;82.10;98596.59;5013158;28;20538;-71
2021/11/27 06:37:05;;;;;;;0.40;0.30;;;;;;;3.50;82.08;98603.63;5013126;28;20464;-71
2021/11/27 06:39:35;;;;;;;0.40;0.30;;;;;;;3.58;82.08;98610.09;5013146;28;20494;-71
2021/11/27 06:42:02;;;;;;;0.40;0.30;;;;;;;3.59;81.83;98601.78;5013144;28;20454;-71
2021/11/27 06:44:30;;;;;;;0.40;0.30;;;;;;;3.64;81.90;98601.66;5012844;28;20448;-71
2021/11/27 06:46:57;;;;;;;0.40;0.30;;;;;;;3.65;81.85;98610.47;5013009;28;20483;-71
2021/11/27 06:49:24;;;;;;;0.40;0.30;;;;;;;3.69;82.30;98608.78;5013202;28;20440;-71
2021/11/27 06:51:50;;;;;;;0.40;0.30;;;;;;;3.74;82.36;98609.44;5012857;28;20926;-71
2021/11/27 06:54:17;;;;;;;0.40;0.30;;;;;;;3.75;82.48;98611.03;5013073;28;20502;-71
2021/11/27 06:56:45;;;;;;;0.40;0.30;;;;;;;3.71;82.49;98610.03;5012992;28;20558;-73
2021/11/27 06:59:12;;;;;;;0.40;0.30;;;;;;;3.70;82.70;98613.81;5012750;28;20452;-75
2021/11/27 07:01:39;;;;;;;0.40;0.30;;;;;;;3.78;82.61;98615.78;5012998;28;20443;-75
2021/11/27 07:04:06;;;;;;;0.40;0.30;;;;;;;3.83;82.38;98622.91;5012623;28;20444;-75
2021/11/27 07:06:32;;;;;;;0.40;0.30;;;;;;;3.88;81.58;98633.47;5012532;28;20522;-75
2021/11/27 07:08:59;;;;;;;0.40;0.30;;;;;;;3.85;80.96;98627.94;5013003;28;20481;-75
2021/11/27 07:11:26;;;;;;;0.40;0.30;;;;;;;3.85;81.13;98631.44;5012921;28;20883;-75
2021/11/27 07:13:54;;;;;;;0.40;0.30;;;;;;;3.80;81.57;98640.34;5012660;28;20882;-75
2021/11/27 07:16:21;;;;;;;0.40;0.30;;;;;;;3.78;80.73;98631.06;5014312;28;20496;-75
2021/11/27 07:18:47;;;;;;;0.40;0.30;;;;;;;3.74;81.25;98630.88;5016565;28;20452;-75
2021/11/27 07:21:14;;;;;;;8.60;8.00;;;;;;;3.69;81.44;98638.22;5016544;28;20448;-75
2021/11/27 07:23:41;;;;;;;0.40;0.30;;;;;;;3.72;80.97;98641.09;5016178;28;20929;-75
2021/11/27 07:26:07;;;;;;;0.40;0.30;;;;;;;3.68;81.36;98632.09;5016013;28;20517;-75
2021/11/27 07:28:34;;;;;;;0.40;0.30;;;;;;;3.71;81.39;98639.50;5016383;28;20444;-75
2021/11/27 07:31:03;;;;;;;0.70;0.70;;;;;;;3.75;81.49;98642.38;5016012;28;20444;-75
2021/11/27 07:33:29;;;;;;;0.40;0.30;;;;;;;3.72;80.57;98649.13;5015953;28;20968;-75
2021/11/27 07:35:56;;;;;;;0.40;0.30;;;;;;;3.67;80.46;98646.53;5016138;28;20488;-75
2021/11/27 07:38:23;;;;;;;0.40;0.30;;;;;;;3.71;80.28;98652.09;5016226;28;20517;-75
2021/11/27 07:40:50;;;;;;;0.40;0.20;;;;;;;3.68;80.42;98653.50;5016197;28;20506;-75
2021/11/27 07:43:17;;;;;;;0.40;0.30;;;;;;;3.72;80.19;98646.47;5016123;28;20506;-75
2021/11/27 07:45:43;;;;;;;0.40;0.30;;;;;;;3.80;80.74;98650.28;5015828;28;20507;-75
2021/11/27 07:48:12;;;;;;;0.40;0.30;;;;;;;3.84;80.90;98653.94;5015897;28;20522;-75
2021/11/27 07:50:38;;;;;;;0.40;0.30;;;;;;;3.90;81.24;98650.06;5015904;28;20448;-76
2021/11/27 07:53:05;;;;;;;0.40;0.30;;;;;;;3.95;81.45;98659.84;5015597;28;20937;-75
2021/11/27 07:55:32;;;;;;;0.40;0.30;;;;;;;3.99;81.52;98658.94;5015538;28;21020;-76
2021/11/27 07:57:59;;;;;;;0.53;0.53;;;;;;;4.06;80.49;98663.84;5015690;28;20980;-73
2021/11/27 08:00:25;;;;;;;0.40;0.30;;;;;;;4.12;80.21;98659.97;5015846;28;20444;-72
2021/11/27 08:02:52;;;;;;;2.60;2.40;;;;;;;4.09;80.73;98662.47;5015557;28;20804;-74
2021/11/27 08:05:20;;;;;;;0.40;0.30;;;;;;;4.06;80.99;98658.50;5015648;28;20460;-75
2021/11/27 08:07:47;;;;;;;0.40;0.23;;;;;;;4.09;80.79;98660.56;5015428;28;21043;-73
2021/11/27 08:10:15;;;;;;;0.40;0.27;;;;;;;4.16;80.52;98663.63;5015313;28;20444;-71
2021/11/27 08:12:42;;;;;;;0.40;0.30;;;;;;;4.19;80.00;98667.56;5015344;28;20447;-71
2021/11/27 08:15:10;;;;;;;0.40;0.30;;;;;;;4.15;80.07;98659.34;5015003;28;20787;-71
2021/11/27 08:17:37;;;;;;;0.40;0.20;;;;;;;4.19;79.03;98657.63;5015125;28;20475;-71
2021/11/27 08:20:05;;;;;;;0.40;0.20;;;;;;;4.15;78.58;98666.59;5015466;28;20447;-71
2021/11/27 08:22:33;;;;;;;0.40;0.30;;;;;;;4.15;78.75;98661.22;5015512;28;20444;-71
2021/11/27 08:25:00;;;;;;;0.40;0.30;;;;;;;4.09;79.62;98667.81;5015391;28;20499;-70
2021/11/27 08:27:27;;;;;;;0.40;0.20;;;;;;;4.14;79.43;98673.03;5014363;28;20464;-72
2021/11/27 08:29:54;;;;;;;0.40;0.30;;;;;;;4.18;78.76;98666.78;5015322;28;20444;-73
2021/11/27 08:32:21;;;;;;;0.40;0.30;;;;;;;4.21;78.72;98676.09;5015308;28;20502;-74
2021/11/27 08:34:48;;;;;;;0.40;0.30;;;;;;;4.18;79.00;98665.97;5015207;28;20509;-74
2021/11/27 08:37:15;;;;;;;0.40;0.30;;;;;;;4.23;80.15;98674.69;5014518;28;20488;-73
2021/11/27 08:39:43;;;;;;;0.40;0.30;;;;;;;4.36;79.29;98674.91;5014774;28;20502;-75
2021/11/27 08:42:10;;;;;;;0.40;0.27;;;;;;;4.29;78.87;98672.66;5015073;28;20879;-74
2021/11/27 08:44:37;;;;;;;1.80;1.70;;;;;;;4.39;79.17;98680.47;5014996;28;20490;-75
2021/11/27 08:47:04;;;;;;;0.40;0.40;;;;;;;4.44;79.46;98672.28;5014558;28;21031;-75
2021/11/27 08:49:31;;;;;;;0.40;0.30;;;;;;;4.50;78.73;98667.56;5014927;28;20510;-75
2021/11/27 08:51:57;;;;;;;0.40;0.30;;;;;;;4.55;78.31;98670.91;5014492;28;20878;-76
2021/11/27 08:54:24;;;;;;;0.40;0.27;;;;;;;4.61;78.56;98668.91;5014357;28;20987;-75
2021/11/27 08:56:53;;;;;;;0.50;0.40;;;;;;;4.59;78.83;98665.72;5014640;28;20491;-75
2021/11/27 08:59:19;;;;;;;0.40;0.30;;;;;;;4.62;78.28;98664.31;5014408;28;20444;-73
2021/11/27 09:01:46;;;;;;;4.10;2.93;;;;;;;4.63;78.00;98661.31;5014612;28;20518;-73
2021/11/27 09:04:13;;;;;;;0.40;0.30;;;;;;;4.64;76.97;98662.91;5014564;28;21000;-73
2021/11/27 09:06:40;;;;;;;0.40;0.20;;;;;;;4.61;77.58;98658.19;5014195;28;21004;-73
2021/11/27 09:09:06;;;;;;;0.40;0.30;;;;;;;4.68;77.60;98669.22;5014540;28;20533;-73
2021/11/27 09:11:33;;;;;;;7.63;7.10;;;;;;;4.64;78.34;98662.13;5014521;28;20448;-73
2021/11/27 09:14:02;;;;;;;0.40;0.30;;;;;;;4.67;77.52;98656.94;5014263;28;20812;-73
2021/11/27 09:16:29;;;;;;;0.40;0.30;;;;;;;4.66;77.78;98662.59;5014225;28;20488;-73
2021/11/27 09:18:56;;;;;;;0.40;0.27;;;;;;;4.66;77.77;98666.09;5014174;28;20452;-73
2021/11/27 09:21:22;;;;;;;0.40;0.30;;;;;;;4.73;77.64;98677.13;5014402;28;20594;-73
2021/11/27 09:23:49;;;;;;;0.40;0.30;;;;;;;4.72;77.34;98680.91;5013983;28;20436;-73
2021/11/27 09:26:16;;;;;;;0.70;0.70;;;;;;;4.80;77.63;98674.81;5014176;28;20460;-73
2021/11/27 09:28:43;;;;;;;0.40;0.30;;;;;;;4.86;77.76;98680.03;5013917;28;20930;-73
2021/11/27 09:31:11;;;;;;;0.40;0.30;;;;;;;4.85;77.80;98683.81;5013806;28;20914;-73
2021/11/27 09:33:38;;;;;;;0.60;0.60;;;;;;;4.89;77.60;98684.78;5013611;28;20848;-72
2021/11/27 09:36:07;;;;;;;0.40;0.30;;;;;;;4.91;77.89;98690.63;5013945;28;20542;-73
2021/11/27 09:38:35;;;;;;;0.50;0.40;;;;;;;4.91;77.60;98693.28;5013642;28;20945;-73
2021/11/27 09:41:12;;;;;;;0.40;0.23;;;;;;;4.91;76.39;98687.94;5013631;28;20803;-73
2021/11/27 09:43:42;;;;;;;0.40;0.30;;;;;;;4.92;76.60;98694.91;5013995;28;20436;-72
2021/11/27 09:46:11;;;;;;;0.40;0.30;;;;;;;4.99;76.48;98687.19;5013504;28;20472;-72
2021/11/27 09:48:40;;;;;;;0.40;0.30;;;;;;;5.00;76.50;98680.69;5013874;28;20448;-72
2021/11/27 09:51:08;;;;;;;0.50;0.40;;;;;;;4.99;76.45;98684.50;5014025;28;20483;-72
2021/11/27 09:53:37;;;;;;;0.40;0.20;;;;;;;5.12;76.98;98682.81;5013806;28;20482;-72
2021/11/27 09:56:04;;;;;;;0.40;0.30;;;;;;;5.17;77.10;98672.69;5013677;28;20542;-72
2021/11/27 09:58:32;;;;;;;0.40;0.30;;;;;;;5.24;76.54;98681.09;5013440;28;20950;-72
2021/11/27 10:01:00;;;;;;;0.40;0.30;;;;;;;5.24;76.75;98681.09;5013670;28;20821;-72
2021/11/27 10:03:31;;;;;;;0.40;0.20;;;;;;;5.37;76.74;98683.97;5013391;28;20478;-72
2021/11/27 10:05:58;;;;;;;1.07;0.97;;;;;;;5.47;76.04;98679.06;5013152;28;20985;-72
2021/11/27 10:08:25;;;;;;;0.40;0.30;;;;;;;5.49;74.00;98673.38;5013554;28;20448;-72
2021/11/27 10:10:52;;;;;;;0.70;0.70;;;;;;;5.52;74.25;98670.88;5013472;28;20996;-72
2021/11/27 10:13:20;;;;;;;0.50;0.50;;;;;;;5.53;74.75;98677.84;5013193;28;20936;-72
2021/11/27 10:15:48;;;;;;;0.40;0.30;;;;;;;5.63;74.74;98676.75;5013340;28;20468;-72
2021/11/27 10:18:16;;;;;;;0.40;0.30;;;;;;;5.67;74.74;98683.06;5013256;28;20938;-73
2021/11/27 10:20:44;;;;;;;0.40;0.30;;;;;;;5.64;74.12;98680.22;5012952;28;20459;-72
2021/11/27 10:23:11;;;;;;;0.40;0.20;;;;;;;5.66;73.80;98675.31;5012855;28;20946;-72
2021/11/27 10:25:40;;;;;;;0.50;0.50;;;;;;;5.57;73.88;98678.75;5013011;28;20483;-71
2021/11/27 10:28:14;;;;;;;0.63;0.63;;;;;;;5.57;73.76;98683.34;5013387;28;20444;-72
2021/11/27 10:30:47;;;;;;;0.40;0.30;;;;;;;5.56;74.16;98681.78;5013188;28;20570;-72
2021/11/27 10:33:15;;;;;;;0.40;0.30;;;;;;;5.59;73.89;98686.53;5013084;28;20436;-72
2021/11/27 10:35:55;;;;;;;0.40;0.30;;;;;;;5.62;74.37;98690.47;5013165;28;20865;-72
2021/11/27 10:38:22;;;;;;;0.40;0.30;;;;;;;5.61;74.51;98695.03;5013343;28;20428;-72
2021/11/27 10:40:57;;;;;;;0.40;0.37;;;;;;;5.49;74.70;98695.69;5013231;28;20440;-74
2021/11/27 10:43:24;;;;;;;0.40;0.30;;;;;;;5.46;74.52;98698.19;5012985;28;20479;-74
2021/11/27 10:45:51;;;;;;;0.40;0.30;;;;;;;5.52;74.35;98699.63;5012840;28;20471;-74
2021/11/27 10:48:20;;;;;;;0.40;0.20;;;;;;;5.53;75.23;98701.19;5013259;28;20498;-74
2021/11/27 10:50:49;;;;;;;1.07;1.07;;;;;;;5.56;74.43;98695.19;5014225;28;20443;-75
2021/11/27 10:53:19;;;;;;;0.40;0.30;;;;;;;5.57;74.30;98699.47;5017156;28;20440;-73
2021/11/27 10:55:46;;;;;;;0.40;0.30;;;;;;;5.58;74.39;98703.75;5017022;28;20498;-71
2021/11/27 10:58:14;;;;;;;1.33;1.23;;;;;;;5.52;73.97;98702.31;5016993;28;20491;-75
2021/11/27 11:00:43;;;;;;;0.93;0.93;;;;;;;5.52;74.58;98695.03;5016939;28;20486;-75
2021/11/27 11:03:26;;;;;;;0.50;0.40;;;;;;;5.54;74.61;98692.06;5016634;28;20448;-77
2021/11/27 11:05:55;;;;;;;0.40;0.30;;;;;;;5.50;75.42;98688.41;5016408;28;20459;-76
2021/11/27 11:08:33;;;;;;;0.40;0.30;;;;;;;5.47;74.55;98686.34;5016588;28;20451;-77
2021/11/27 11:11:01;;;;;;;0.40;0.30;;;;;;;5.46;75.43;98684.78;5016874;28;20519;-76
2021/11/27 11:13:33;;;;;;;0.40;0.23;;;;;;;5.52;75.19;98678.13;5016380;28;21011;-76
2021/11/27 11:16:08;;;;;;;0.40;0.30;;;;;;;5.54;75.55;98667.88;5016502;28;20525;-75
2021/11/27 11:18:35;;;;;;;0.40;0.30;;;;;;;5.49;76.63;98671.53;5016474;28;20522;-75
2021/11/27 11:21:04;;;;;;;0.40;0.30;;;;;;;5.53;76.55;98663.59;5016641;28;20862;-75
2021/11/27 11:23:34;;;;;;;0.40;0.30;;;;;;;5.63;76.10;98674.06;5016531;28;20504;-76
2021/11/27 11:26:05;;;;;;;0.40;0.30;;;;;;;5.66;76.32;98672.63;5016163;28;20539;-75
2021/11/27 11:28:35;;;;;;;0.40;0.30;;;;;;;5.66;75.44;98665.34;5016541;28;20428;-75
2021/11/27 11:31:07;;;;;;;0.40;0.30;;;;;;;5.59;76.92;98662.34;5016381;28;20870;-75
2021/11/27 11:33:38;;;;;;;0.40;0.30;;;;;;;5.65;77.18;98657.63;5016324;28;20483;-74
2021/11/27 11:36:07;;;;;;;0.40;0.30;;;;;;;5.75;76.06;98662.66;5016156;28;20464;-74
2021/11/27 11:38:36;;;;;;;0.40;0.30;;;;;;;5.78;75.48;98660.13;5015845;28;21037;-74
2021/11/27 11:41:03;;;;;;;0.40;0.30;;;;;;;5.73;74.93;98652.25;5015929;28;20448;-74
2021/11/27 11:43:31;;;;;;;0.40;0.30;;;;;;;5.73;74.62;98657.63;5015950;28;20510;-73
2021/11/27 11:45:58;;;;;;;0.40;0.30;;;;;;;5.67;74.66;98652.72;5015868;28;20996;-75